Time;durP1;ratioP1;P1;durP2;ratioP2;P2;SDS_P1;SDS_P2;PMS_P1;PMS_P2;Temp;Humidity;BMP_temperature;BMP_pressure;BME280_temperature;BME280_humidity;BME280_pressure;Samples;Min_cycle;Max_cycle;Signal;HPM_P1;HPM_P2
2022/04/06 00:01:39;;;;;;;3.63;2.40;;;8.90;99.90;;;;;;4950595;29;20035;-74
2022/04/06 00:04:04;;;;;;;2.90;1.90;;;9.10;99.90;;;;;;4949662;29;20050;-77
2022/04/06 00:06:31;;;;;;;3.38;2.03;;;9.20;99.90;;;;;;4949540;29;20074;-79
2022/04/06 00:08:56;;;;;;;2.42;1.90;;;9.20;99.90;;;;;;4949004;29;20030;-77
2022/04/06 00:11:23;;;;;;;2.22;1.75;;;9.20;99.90;;;;;;4953362;29;20020;-74
2022/04/06 00:13:49;;;;;;;1.70;1.60;;;9.30;99.90;;;;;;4955697;29;20517;-74
2022/04/06 00:16:15;;;;;;;2.03;1.60;;;9.30;99.90;;;;;;4956949;29;20055;-74
2022/04/06 00:18:41;;;;;;;4.05;1.90;;;9.30;99.90;;;;;;4956242;29;20042;-74
2022/04/06 00:21:07;;;;;;;3.38;2.35;;;9.30;99.90;;;;;;4939130;29;20049;-74
2022/04/06 00:23:33;;;;;;;2.83;1.73;;;9.30;99.90;;;;;;4953699;29;20023;-74
2022/04/06 00:25:58;;;;;;;2.15;1.70;;;9.40;99.90;;;;;;4955693;29;20503;-74
2022/04/06 00:28:24;;;;;;;2.63;1.80;;;9.50;99.90;;;;;;4957791;29;20075;-74
2022/04/06 00:30:50;;;;;;;1.77;1.67;;;9.50;99.90;;;;;;4958840;29;20544;-75
2022/04/06 00:33:16;;;;;;;1.85;1.70;;;9.50;99.90;;;;;;4957266;29;20034;-74
2022/04/06 00:35:42;;;;;;;1.98;1.58;;;9.60;99.90;;;;;;4953116;29;20507;-77
2022/04/06 00:38:08;;;;;;;2.10;1.90;;;9.70;99.90;;;;;;4953776;29;20039;-74
2022/04/06 00:40:35;;;;;;;2.00;1.80;;;9.80;99.90;;;;;;4954228;29;20023;-74
2022/04/06 00:43:10;;;;;;;2.85;2.42;;;9.90;99.90;;;;;;4936388;29;20126;-74
2022/04/06 00:45:38;;;;;;;10.05;2.50;;;9.90;99.90;;;;;;4956609;29;20027;-74
2022/04/06 00:48:05;;;;;;;3.80;2.30;;;9.90;99.90;;;;;;4941719;29;20035;-74
2022/04/06 00:50:31;;;;;;;3.45;1.80;;;9.90;99.90;;;;;;4960088;28;20079;-74
2022/04/06 00:52:57;;;;;;;3.75;2.28;;;9.90;99.90;;;;;;4960670;29;20031;-73
2022/04/06 00:55:31;;;;;;;3.92;2.30;;;9.90;99.90;;;;;;4961695;29;20047;-74
2022/04/06 00:57:58;;;;;;;4.22;2.65;;;9.80;99.90;;;;;;4960372;29;20042;-74
2022/04/06 01:00:25;;;;;;;2.38;1.98;;;9.90;99.90;;;;;;4960740;29;20024;-73
2022/04/06 01:02:50;;;;;;;3.65;2.08;;;9.90;99.90;;;;;;4957111;29;20535;-76
2022/04/06 01:05:16;;;;;;;2.33;2.10;;;9.80;99.90;;;;;;4961121;29;20138;-74
2022/04/06 01:07:54;;;;;;;2.15;1.95;;;9.80;99.90;;;;;;4960516;29;20035;-73
2022/04/06 01:10:20;;;;;;;3.03;2.20;;;9.90;99.90;;;;;;4944217;29;20118;-74
2022/04/06 01:12:47;;;;;;;2.50;2.05;;;9.80;99.90;;;;;;4962486;29;20062;-76
2022/04/06 01:15:14;;;;;;;2.10;1.90;;;9.80;99.90;;;;;;4960049;29;20024;-74
2022/04/06 01:17:41;;;;;;;2.03;1.75;;;9.80;99.90;;;;;;4945064;29;20114;-74
2022/04/06 01:20:08;;;;;;;3.72;2.55;;;9.80;99.90;;;;;;4958235;29;20034;-74
2022/04/06 01:22:35;;;;;;;2.15;1.95;;;9.70;99.90;;;;;;4961075;29;20031;-74
2022/04/06 01:25:02;;;;;;;2.65;2.38;;;9.70;99.90;;;;;;4960922;29;20384;-74
2022/04/06 01:27:28;;;;;;;2.83;2.00;;;9.70;99.90;;;;;;4955617;28;20035;-74
2022/04/06 01:29:54;;;;;;;4.60;2.80;;;9.60;99.90;;;;;;4957610;29;20034;-75
2022/04/06 01:32:24;;;;;;;5.25;2.20;;;9.60;99.90;;;;;;4957805;29;20027;-73
2022/04/06 01:34:53;;;;;;;2.60;2.10;;;9.60;99.90;;;;;;4955212;29;20024;-75
2022/04/06 01:37:19;;;;;;;2.20;2.00;;;9.70;99.90;;;;;;4955548;29;20091;-73
2022/04/06 01:39:46;;;;;;;2.75;2.55;;;9.70;99.90;;;;;;4956026;29;20071;-74
2022/04/06 01:42:15;;;;;;;3.25;1.98;;;9.70;99.90;;;;;;4956357;29;20028;-74
2022/04/06 01:44:44;;;;;;;2.65;1.88;;;9.70;99.90;;;;;;4955444;29;20016;-74
2022/04/06 01:47:11;;;;;;;3.83;2.03;;;9.60;99.90;;;;;;4958931;29;20031;-77
2022/04/06 01:52:22;;;;;;;4.50;2.33;;;9.60;99.90;;;;;;4958250;29;20042;-74
2022/04/06 01:54:54;;;;;;;3.25;2.22;;;9.60;99.90;;;;;;4957677;29;20618;-75
2022/04/06 01:57:23;;;;;;;2.13;1.90;;;9.60;99.90;;;;;;4957944;29;20038;-74
2022/04/06 01:59:50;;;;;;;2.22;1.90;;;9.50;99.90;;;;;;4957866;29;20027;-74
2022/04/06 02:02:18;;;;;;;2.58;1.95;;;9.50;99.90;;;;;;4937575;29;20551;-74
2022/04/06 02:04:44;;;;;;;2.80;1.75;;;9.50;99.90;;;;;;4958292;29;20027;-74
2022/04/06 02:07:11;;;;;;;2.42;2.20;;;9.40;99.90;;;;;;4956003;29;20033;-74
2022/04/06 02:09:38;;;;;;;2.67;1.88;;;9.40;99.90;;;;;;4957674;29;20067;-74
2022/04/06 02:12:07;;;;;;;5.70;2.40;;;9.40;99.90;;;;;;4958071;29;20024;-74
2022/04/06 02:14:33;;;;;;;3.45;1.95;;;9.40;99.90;;;;;;4959737;29;20019;-76
2022/04/06 02:16:59;;;;;;;2.38;1.77;;;9.40;99.90;;;;;;4957956;29;20046;-74
2022/04/06 02:19:25;;;;;;;2.55;2.15;;;9.40;99.90;;;;;;4956823;29;20043;-74
2022/04/06 02:21:51;;;;;;;3.53;1.90;;;9.40;99.90;;;;;;4958020;29;20110;-74
2022/04/06 02:24:18;;;;;;;1.90;1.80;;;9.40;99.90;;;;;;4958639;29;20046;-75
2022/04/06 02:26:45;;;;;;;3.40;2.03;;;9.40;99.90;;;;;;4942075;29;20034;-75
2022/04/06 02:29:10;;;;;;;3.58;1.92;;;9.30;99.90;;;;;;4958203;28;20071;-80
2022/04/06 02:31:36;;;;;;;1.80;1.70;;;9.40;99.90;;;;;;4959009;29;20087;-75
2022/04/06 02:34:02;;;;;;;2.97;2.03;;;9.40;99.90;;;;;;4962755;29;20011;-75
2022/04/06 02:36:28;;;;;;;2.20;2.00;;;9.40;99.90;;;;;;4942117;29;20031;-74
2022/04/06 02:38:53;;;;;;;4.05;2.25;;;9.40;99.90;;;;;;4959185;29;20031;-74
2022/04/06 02:41:19;;;;;;;5.75;2.65;;;9.30;99.90;;;;;;4961963;29;20518;-74
2022/04/06 02:43:45;;;;;;;2.75;2.22;;;9.40;99.90;;;;;;4963727;29;20067;-74
2022/04/06 02:46:11;;;;;;;4.63;2.47;;;9.30;99.90;;;;;;4959850;29;20046;-74
2022/04/06 02:48:36;;;;;;;4.75;2.22;;;9.30;99.90;;;;;;4958643;29;20483;-74
2022/04/06 02:51:02;;;;;;;4.05;2.40;;;9.30;99.90;;;;;;4956156;29;20469;-74
2022/04/06 02:53:28;;;;;;;2.65;2.22;;;9.30;99.90;;;;;;4961358;29;20035;-74
2022/04/06 02:55:53;;;;;;;2.80;2.30;;;9.30;99.90;;;;;;4963315;29;20027;-75
2022/04/06 02:58:19;;;;;;;2.75;2.47;;;9.30;99.90;;;;;;4940359;29;20067;-74
2022/04/06 03:00:45;;;;;;;3.08;2.78;;;9.30;99.90;;;;;;4957676;29;20027;-74
2022/04/06 03:03:10;;;;;;;3.55;2.40;;;9.30;99.90;;;;;;4956155;29;20457;-74
2022/04/06 03:05:36;;;;;;;5.85;2.63;;;9.20;99.90;;;;;;4956022;29;20023;-74
2022/04/06 03:08:02;;;;;;;2.70;2.40;;;9.20;99.90;;;;;;4953891;29;20019;-75
2022/04/06 03:10:28;;;;;;;3.90;2.50;;;9.20;99.90;;;;;;4938015;29;20390;-74
2022/04/06 03:12:54;;;;;;;3.88;2.40;;;9.20;99.90;;;;;;4954619;28;20137;-74
2022/04/06 03:15:19;;;;;;;5.38;2.65;;;9.10;99.90;;;;;;4944717;29;20015;-73
2022/04/06 03:17:45;;;;;;;3.67;2.20;;;9.20;99.90;;;;;;4946219;29;20032;-74
2022/04/06 03:20:14;;;;;;;2.92;2.47;;;9.10;99.90;;;;;;4955867;29;20090;-74
2022/04/06 03:22:41;;;;;;;3.35;2.25;;;9.20;99.90;;;;;;4937299;29;20090;-74
2022/04/06 03:25:08;;;;;;;5.25;3.10;;;9.10;99.90;;;;;;4960840;29;20452;-74
2022/04/06 03:27:35;;;;;;;2.92;2.42;;;9.10;99.90;;;;;;4962328;28;20050;-74
2022/04/06 03:30:03;;;;;;;2.67;2.40;;;9.10;99.90;;;;;;4940273;29;20027;-74
2022/04/06 03:32:29;;;;;;;4.63;2.78;;;9.10;99.90;;;;;;4956688;29;20031;-74
2022/04/06 03:34:54;;;;;;;3.65;2.83;;;9.10;99.90;;;;;;4959648;29;20102;-74
2022/04/06 03:37:20;;;;;;;3.28;2.58;;;9.00;99.90;;;;;;4959222;29;20101;-74
2022/04/06 03:39:45;;;;;;;2.60;2.40;;;9.10;99.90;;;;;;4962191;29;20054;-74
2022/04/06 03:42:11;;;;;;;4.38;2.78;;;9.00;99.90;;;;;;4956000;29;20027;-74
2022/04/06 03:44:37;;;;;;;4.75;2.58;;;9.00;99.90;;;;;;4961528;29;20089;-74
2022/04/06 03:47:03;;;;;;;5.75;3.22;;;9.00;99.90;;;;;;4963759;29;20029;-74
2022/04/06 03:49:29;;;;;;;4.05;3.03;;;9.00;99.90;;;;;;4956168;29;20028;-73
2022/04/06 03:51:54;;;;;;;4.32;2.67;;;8.90;99.90;;;;;;4954354;29;20090;-74
2022/04/06 03:54:20;;;;;;;5.07;2.53;;;8.90;99.90;;;;;;4960533;29;20023;-74
2022/04/06 03:56:46;;;;;;;3.92;2.75;;;8.80;99.90;;;;;;4958647;29;20035;-74
2022/04/06 03:59:11;;;;;;;3.47;3.17;;;8.80;99.90;;;;;;4956041;28;20071;-74
2022/04/06 04:01:37;;;;;;;4.97;2.78;;;8.80;99.90;;;;;;4955769;29;20027;-74
2022/04/06 04:04:04;;;;;;;3.55;2.58;;;8.80;99.90;;;;;;4960997;29;20468;-74
2022/04/06 04:06:31;;;;;;;7.53;3.08;;;8.80;99.90;;;;;;4958188;29;20029;-74
2022/04/06 04:08:56;;;;;;;3.75;2.63;;;8.80;99.90;;;;;;4958665;29;20034;-74
2022/04/06 04:11:22;;;;;;;13.07;3.65;;;8.70;99.90;;;;;;4958131;29;20027;-74
2022/04/06 04:13:48;;;;;;;6.85;2.42;;;8.80;99.90;;;;;;4957164;29;20030;-76
2022/04/06 04:16:14;;;;;;;4.00;2.97;;;8.80;99.90;;;;;;4959564;29;20043;-75
2022/04/06 04:18:40;;;;;;;4.00;2.65;;;8.70;99.90;;;;;;4959089;29;20031;-74
2022/04/06 04:23:50;;;;;;;3.22;2.92;;;8.70;99.90;;;;;;4958477;29;20054;-75
2022/04/06 04:26:16;;;;;;;4.20;2.40;;;8.70;99.90;;;;;;4960477;29;20027;-76
2022/04/06 04:28:42;;;;;;;3.80;2.80;;;8.70;99.90;;;;;;4956430;29;20070;-74
2022/04/06 04:31:08;;;;;;;3.03;2.53;;;8.70;99.90;;;;;;4953836;29;20027;-74
2022/04/06 04:33:33;;;;;;;3.47;2.63;;;8.60;99.90;;;;;;4952583;29;20102;-74
2022/04/06 04:35:59;;;;;;;2.67;2.40;;;8.60;99.90;;;;;;4957274;29;20023;-74
2022/04/06 04:38:25;;;;;;;3.70;2.10;;;8.60;99.90;;;;;;4962571;29;20027;-74
2022/04/06 04:40:51;;;;;;;3.72;2.30;;;8.60;99.90;;;;;;4959600;29;20027;-73
2022/04/06 04:43:19;;;;;;;4.63;2.50;;;8.50;99.90;;;;;;4961554;29;20027;-74
2022/04/06 04:45:45;;;;;;;4.55;2.35;;;8.50;99.90;;;;;;4961109;29;20019;-74
2022/04/06 04:48:11;;;;;;;2.83;2.20;;;8.40;99.90;;;;;;4955570;29;20396;-74
2022/04/06 04:50:40;;;;;;;4.35;3.13;;;8.50;99.90;;;;;;4956398;29;20027;-74
2022/04/06 04:53:06;;;;;;;8.50;3.80;;;8.40;99.90;;;;;;4959102;29;20491;-74
2022/04/06 04:55:33;;;;;;;4.25;3.13;;;8.50;99.90;;;;;;4959837;29;20023;-74
2022/04/06 04:57:59;;;;;;;3.13;2.80;;;8.40;99.90;;;;;;4960164;29;20039;-74
2022/04/06 05:00:26;;;;;;;3.78;3.40;;;8.40;99.90;;;;;;4961357;29;20030;-74
2022/04/06 05:02:51;;;;;;;8.55;6.80;;;8.50;99.90;;;;;;4957860;29;20049;-74
2022/04/06 05:05:17;;;;;;;12.23;6.20;;;8.40;99.90;;;;;;4960320;29;20024;-75
2022/04/06 05:07:43;;;;;;;50.40;27.50;;;8.40;99.90;;;;;;4957829;29;20059;-74
2022/04/06 05:10:10;;;;;;;72.75;37.35;;;8.40;99.90;;;;;;4953811;29;20024;-75
2022/04/06 05:12:36;;;;;;;35.72;18.70;;;8.50;99.90;;;;;;4955944;29;20035;-74
2022/04/06 05:15:04;;;;;;;33.53;15.57;;;8.50;99.90;;;;;;4956506;29;20054;-74
2022/04/06 05:17:30;;;;;;;6.93;4.90;;;8.50;99.90;;;;;;4953308;29;20392;-74
2022/04/06 05:19:56;;;;;;;8.18;5.05;;;8.50;99.90;;;;;;4953949;29;20094;-74
2022/04/06 05:22:23;;;;;;;6.75;4.10;;;8.60;99.90;;;;;;4957553;29;20059;-74
2022/04/06 05:24:50;;;;;;;9.02;5.18;;;8.60;99.90;;;;;;4953420;29;20015;-73
2022/04/06 05:27:16;;;;;;;7.03;3.75;;;8.50;99.90;;;;;;4952522;29;20027;-73
2022/04/06 05:29:42;;;;;;;5.90;3.60;;;8.50;99.90;;;;;;4953607;29;20609;-73
2022/04/06 05:32:08;;;;;;;6.03;3.65;;;8.50;99.90;;;;;;4952834;29;20099;-74
2022/04/06 05:34:35;;;;;;;6.95;4.30;;;8.50;99.90;;;;;;4953159;29;20465;-73
2022/04/06 05:37:02;;;;;;;4.30;3.67;;;8.60;99.90;;;;;;4956157;28;20094;-74
2022/04/06 05:39:28;;;;;;;5.07;3.10;;;8.50;99.90;;;;;;4956588;29;20114;-74
2022/04/06 05:41:54;;;;;;;6.53;3.00;;;8.60;99.90;;;;;;4958025;29;20046;-73
2022/04/06 05:44:21;;;;;;;4.95;3.78;;;8.60;99.90;;;;;;4957216;29;20058;-74
2022/04/06 05:46:47;;;;;;;3.70;3.10;;;8.70;99.90;;;;;;4956208;29;20047;-73
2022/04/06 05:49:13;;;;;;;4.35;3.15;;;8.70;99.90;;;;;;4955269;29;20027;-74
2022/04/06 05:51:38;;;;;;;3.88;3.47;;;8.80;99.90;;;;;;4954763;29;20050;-73
2022/04/06 05:54:04;;;;;;;4.15;3.20;;;8.90;99.90;;;;;;4953148;29;20589;-74
2022/04/06 05:56:31;;;;;;;2.80;2.42;;;8.90;99.90;;;;;;4953377;29;20045;-73
2022/04/06 05:58:56;;;;;;;4.63;3.85;;;9.00;99.90;;;;;;4955113;29;20051;-73
2022/04/06 06:01:23;;;;;;;3.80;2.97;;;9.10;99.90;;;;;;4956007;29;20034;-72
2022/04/06 06:03:49;;;;;;;5.70;3.97;;;9.10;99.90;;;;;;4955075;29;20106;-73
2022/04/06 06:06:15;;;;;;;2.97;2.53;;;9.10;99.90;;;;;;4954195;29;20075;-73
2022/04/06 06:08:41;;;;;;;5.60;3.28;;;9.20;99.90;;;;;;4953044;29;20301;-74
2022/04/06 06:11:10;;;;;;;3.70;2.80;;;9.30;99.90;;;;;;4954371;29;20271;-74
2022/04/06 06:13:36;;;;;;;3.60;2.85;;;9.40;99.90;;;;;;4956348;29;20033;-73
2022/04/06 06:16:04;;;;;;;5.30;3.88;;;9.50;99.90;;;;;;4953379;29;20435;-73
2022/04/06 06:18:33;;;;;;;5.65;3.15;;;9.60;99.90;;;;;;4958362;28;20109;-73
2022/04/06 06:21:01;;;;;;;6.55;3.63;;;9.60;99.90;;;;;;4953353;28;20039;-74
2022/04/06 06:23:27;;;;;;;6.63;3.60;;;9.70;99.90;;;;;;4954934;29;20377;-76
2022/04/06 06:25:53;;;;;;;7.10;3.92;;;9.80;99.90;;;;;;4954425;29;20015;-76
2022/04/06 06:28:19;;;;;;;5.10;3.05;;;9.90;99.90;;;;;;4952813;28;20062;-73
2022/04/06 06:30:44;;;;;;;5.53;3.28;;;10.00;99.90;;;;;;4948594;29;20439;-76
2022/04/06 06:33:10;;;;;;;5.57;3.15;;;10.10;99.90;;;;;;4958460;28;20055;-73
2022/04/06 06:35:36;;;;;;;4.22;2.63;;;10.10;99.90;;;;;;4960500;28;20058;-74
2022/04/06 06:38:02;;;;;;;4.47;3.55;;;10.00;99.90;;;;;;4959223;28;20031;-74
2022/04/06 06:40:28;;;;;;;5.65;2.72;;;10.00;99.90;;;;;;4964321;28;20027;-73
2022/04/06 06:42:54;;;;;;;3.08;2.78;;;10.30;99.90;;;;;;4964428;29;20296;-74
2022/04/06 06:45:20;;;;;;;4.05;2.58;;;10.40;99.90;;;;;;4961285;29;20176;-77
2022/04/06 06:47:47;;;;;;;2.65;2.00;;;10.60;99.90;;;;;;4956751;28;20190;-74
2022/04/06 06:50:15;;;;;;;2.83;2.08;;;10.70;99.90;;;;;;4935073;29;20035;-74
2022/04/06 06:52:40;;;;;;;3.17;2.10;;;10.90;99.90;;;;;;4960667;29;20392;-73
2022/04/06 06:55:07;;;;;;;2.83;2.00;;;10.90;99.90;;;;;;4954433;29;20076;-74
2022/04/06 06:57:34;;;;;;;2.80;1.52;;;10.90;99.90;;;;;;4953494;29;20027;-73
2022/04/06 07:00:00;;;;;;;1.48;1.30;;;10.90;99.90;;;;;;4954653;29;20294;-73
2022/04/06 07:02:26;;;;;;;1.98;1.45;;;10.90;99.90;;;;;;4958410;29;20035;-79
2022/04/06 07:04:54;;;;;;;2.75;1.30;;;10.90;99.90;;;;;;4954687;29;20099;-73
2022/04/06 07:07:20;;;;;;;2.03;1.77;;;11.00;99.90;;;;;;4956382;29;20023;-74
2022/04/06 07:09:46;;;;;;;1.60;1.10;;;11.20;99.90;;;;;;4960731;29;20469;-73
2022/04/06 07:12:12;;;;;;;1.05;1.00;;;11.10;99.90;;;;;;4961215;29;20035;-74
2022/04/06 07:14:38;;;;;;;2.38;1.33;;;11.00;99.90;;;;;;4956692;29;20058;-73
2022/04/06 07:17:04;;;;;;;1.55;0.60;;;10.80;99.90;;;;;;4960222;29;20042;-73
2022/04/06 07:19:29;;;;;;;0.80;0.80;;;10.80;99.90;;;;;;4955601;28;20027;-73
2022/04/06 07:21:55;;;;;;;1.02;0.70;;;10.70;99.90;;;;;;4954436;28;20030;-74
2022/04/06 07:24:21;;;;;;;1.88;1.15;;;10.70;99.90;;;;;;4956436;29;20063;-73
2022/04/06 07:26:47;;;;;;;1.20;0.90;;;10.70;99.90;;;;;;4954255;29;20407;-73
2022/04/06 07:29:15;;;;;;;1.05;1.00;;;10.90;99.90;;;;;;4955070;29;20043;-73
2022/04/06 07:31:42;;;;;;;0.77;0.77;;;11.10;99.90;;;;;;4952922;29;20035;-73
2022/04/06 07:34:09;;;;;;;0.93;0.70;;;11.10;99.90;;;;;;4951884;29;20205;-73
2022/04/06 07:36:34;;;;;;;1.38;0.90;;;11.00;99.90;;;;;;4952033;29;20094;-74
2022/04/06 07:39:02;;;;;;;0.90;0.88;;;11.10;99.90;;;;;;4951236;29;20023;-73
2022/04/06 07:41:28;;;;;;;0.70;0.65;;;11.10;99.90;;;;;;4953987;29;20111;-74
2022/04/06 07:43:54;;;;;;;1.00;0.90;;;11.00;99.90;;;;;;4952626;29;20027;-73
2022/04/06 07:46:20;;;;;;;0.70;0.70;;;11.00;99.90;;;;;;4953780;29;20027;-74
2022/04/06 07:48:46;;;;;;;2.00;1.02;;;11.00;99.90;;;;;;4954611;29;20049;-73
2022/04/06 07:51:11;;;;;;;0.88;0.82;;;11.10;99.90;;;;;;4951802;28;20054;-82
2022/04/06 07:53:37;;;;;;;0.70;0.70;;;11.00;99.90;;;;;;4952834;29;20035;-74
2022/04/06 07:56:03;;;;;;;0.52;0.52;;;10.90;99.90;;;;;;4952927;29;20019;-78
2022/04/06 07:58:29;;;;;;;0.68;0.68;;;10.90;99.90;;;;;;4951519;28;20043;-75
2022/04/06 08:00:55;;;;;;;1.17;0.93;;;10.90;99.90;;;;;;4950600;29;20027;-75
2022/04/06 08:03:21;;;;;;;0.70;0.70;;;10.90;99.90;;;;;;4951217;29;20472;-75
2022/04/06 08:05:46;;;;;;;0.88;0.88;;;10.90;99.90;;;;;;4950605;29;20377;-75
2022/04/06 08:08:12;;;;;;;0.90;0.90;;;10.80;99.90;;;;;;4950348;29;20035;-75
2022/04/06 08:10:38;;;;;;;1.58;0.93;;;10.80;99.90;;;;;;4950587;29;20309;-75
2022/04/06 08:13:03;;;;;;;1.25;1.15;;;10.70;99.90;;;;;;4951023;29;20029;-75
2022/04/06 08:15:29;;;;;;;0.80;0.80;;;10.80;99.90;;;;;;4950421;29;20034;-75
2022/04/06 08:17:55;;;;;;;1.60;1.10;;;10.70;99.90;;;;;;4951409;29;20523;-75
2022/04/06 08:20:21;;;;;;;1.98;1.10;;;10.80;99.90;;;;;;4950714;29;20023;-76
2022/04/06 08:22:48;;;;;;;1.73;1.20;;;10.90;99.90;;;;;;4950175;29;20023;-75
2022/04/06 08:25:14;;;;;;;1.40;1.13;;;11.10;99.90;;;;;;4951449;29;20050;-75
2022/04/06 08:27:40;;;;;;;1.23;1.00;;;11.20;99.90;;;;;;4950668;28;20524;-75
2022/04/06 08:30:07;;;;;;;1.20;1.10;;;11.10;99.90;;;;;;4950909;29;20376;-75
2022/04/06 08:32:33;;;;;;;1.27;1.05;;;11.20;99.90;;;;;;4950453;29;20039;-75
2022/04/06 08:35:00;;;;;;;0.70;0.70;;;11.20;99.90;;;;;;4934391;29;20404;-76
2022/04/06 08:37:29;;;;;;;1.35;0.88;;;11.00;99.90;;;;;;4934365;29;20051;-77
2022/04/06 08:39:54;;;;;;;2.58;0.93;;;11.10;99.90;;;;;;4951796;29;20045;-75
2022/04/06 08:42:20;;;;;;;1.48;0.93;;;11.10;99.90;;;;;;4952190;29;20468;-75
2022/04/06 08:44:46;;;;;;;1.42;0.73;;;11.10;99.90;;;;;;4951794;29;20031;-75
2022/04/06 08:47:12;;;;;;;2.47;1.15;;;11.10;99.90;;;;;;4951506;29;20024;-75
2022/04/06 08:49:41;;;;;;;0.70;0.70;;;11.10;99.90;;;;;;4952005;29;20075;-75
2022/04/06 08:52:09;;;;;;;1.15;1.05;;;11.10;99.90;;;;;;4951709;29;20047;-75
2022/04/06 08:54:35;;;;;;;0.70;0.70;;;11.20;99.90;;;;;;4951421;29;20193;-75
2022/04/06 08:57:02;;;;;;;1.40;1.30;;;11.30;99.90;;;;;;4951492;29;20029;-75
2022/04/06 08:59:28;;;;;;;0.90;0.90;;;11.20;99.90;;;;;;4951662;29;20027;-75
2022/04/06 09:01:56;;;;;;;1.60;0.88;;;11.20;99.90;;;;;;4951724;29;20026;-74
2022/04/06 09:04:23;;;;;;;1.33;0.70;;;11.30;99.90;;;;;;4951521;29;20547;-76
2022/04/06 09:06:49;;;;;;;0.60;0.60;;;11.40;99.90;;;;;;4951839;29;20589;-75
2022/04/06 09:09:24;;;;;;;0.90;0.90;;;11.40;99.90;;;;;;4951260;29;20027;-75
2022/04/06 09:11:50;;;;;;;0.70;0.70;;;11.50;99.90;;;;;;4954233;28;20054;-75
2022/04/06 09:14:28;;;;;;;2.50;0.60;;;11.60;99.90;;;;;;4955357;29;20441;-76
2022/04/06 09:17:02;;;;;;;0.63;0.63;;;11.60;99.90;;;;;;4955245;29;20480;-75
2022/04/06 09:19:28;;;;;;;0.80;0.80;;;11.50;99.90;;;;;;4955457;29;20031;-75
2022/04/06 09:21:55;;;;;;;0.40;0.40;;;11.60;99.90;;;;;;4955237;29;20385;-75
2022/04/06 09:24:23;;;;;;;0.50;0.50;;;11.70;99.90;;;;;;4955025;29;20019;-75
2022/04/06 09:26:59;;;;;;;0.70;0.60;;;12.00;99.90;;;;;;4955132;29;20299;-75
2022/04/06 09:29:26;;;;;;;1.33;0.65;;;11.60;99.90;;;;;;4955528;29;20122;-75
2022/04/06 09:31:52;;;;;;;0.82;0.60;;;12.00;99.90;;;;;;4955066;29;20050;-75
2022/04/06 09:34:23;;;;;;;0.60;0.60;;;12.10;99.90;;;;;;4955176;29;20031;-75
2022/04/06 09:36:56;;;;;;;0.57;0.50;;;12.40;99.90;;;;;;4955001;29;20477;-75
2022/04/06 09:39:42;;;;;;;1.08;0.88;;;12.60;99.90;;;;;;4954901;29;20059;-75
2022/04/06 09:42:08;;;;;;;0.68;0.68;;;12.90;99.90;;;;;;4937753;29;20023;-75
2022/04/06 09:47:39;;;;;;;1.20;0.43;;;12.60;99.90;;;;;;4954983;29;20077;-75
2022/04/06 09:50:22;;;;;;;2.10;0.52;;;13.00;99.90;;;;;;4954830;29;20495;-75
2022/04/06 09:52:51;;;;;;;0.50;0.50;;;12.90;99.90;;;;;;4955141;29;20023;-76
2022/04/06 09:55:19;;;;;;;0.40;0.40;;;12.90;99.90;;;;;;4954875;29;20033;-75
2022/04/06 09:57:47;;;;;;;0.70;0.60;;;13.20;99.90;;;;;;4954899;29;20091;-75
2022/04/06 10:00:19;;;;;;;0.65;0.65;;;13.10;99.90;;;;;;4954749;29;20023;-75
2022/04/06 10:03:06;;;;;;;1.23;0.40;;;13.10;99.90;;;;;;4954975;29;20094;-75
2022/04/06 10:05:37;;;;;;;0.50;0.50;;;13.10;99.90;;;;;;4954031;29;20070;-75
2022/04/06 10:08:05;;;;;;;0.50;0.50;;;13.10;99.90;;;;;;4954637;29;20334;-75
2022/04/06 10:10:32;;;;;;;0.40;0.40;;;13.20;99.90;;;;;;4954496;29;20019;-75
2022/04/06 10:12:59;;;;;;;0.68;0.50;;;13.40;99.90;;;;;;4954452;29;20075;-75
2022/04/06 10:15:25;;;;;;;0.40;0.40;;;14.00;99.90;;;;;;4936833;29;20513;-75
2022/04/06 10:17:52;;;;;;;0.40;0.40;;;14.00;99.90;;;;;;4954317;29;20140;-75
2022/04/06 10:20:40;;;;;;;0.40;0.40;;;14.00;99.90;;;;;;4954192;29;20023;-75
2022/04/06 10:23:43;;;;;;;0.47;0.47;;;14.30;99.90;;;;;;4953148;28;20546;-75
2022/04/06 10:26:44;;;;;;;0.50;0.47;;;14.20;99.90;;;;;;4954441;29;20030;-75
2022/04/06 10:29:10;;;;;;;0.50;0.50;;;14.30;99.90;;;;;;4954092;29;20676;-75
2022/04/06 10:31:36;;;;;;;1.55;0.47;;;14.10;99.90;;;;;;4954238;29;20026;-75
2022/04/06 10:34:22;;;;;;;0.60;0.60;;;14.10;99.90;;;;;;4954061;29;20028;-76
2022/04/06 10:37:11;;;;;;;0.45;0.45;;;14.40;99.90;;;;;;4953584;29;20058;-76
2022/04/06 10:39:55;;;;;;;1.67;0.68;;;13.90;99.90;;;;;;4953861;29;20058;-75
2022/04/06 10:42:37;;;;;;;0.30;0.30;;;14.20;99.90;;;;;;4954306;29;20207;-75
2022/04/06 10:45:05;;;;;;;0.40;0.40;;;14.90;99.90;;;;;;4954052;29;20477;-75
2022/04/06 10:47:36;;;;;;;0.50;0.50;;;15.00;99.90;;;;;;4953897;29;20027;-76
2022/04/06 10:50:11;;;;;;;0.45;0.35;;;14.80;99.90;;;;;;4953826;29;20027;-75
2022/04/06 10:52:36;;;;;;;0.38;0.38;;;14.10;99.90;;;;;;4953259;29;20028;-75
2022/04/06 10:55:09;;;;;;;0.30;0.30;;;14.30;99.90;;;;;;4953564;29;20027;-75
2022/04/06 10:58:04;;;;;;;0.40;0.40;;;14.30;99.90;;;;;;4953419;29;20385;-76
2022/04/06 11:00:31;;;;;;;1.08;0.50;;;14.50;99.90;;;;;;4937156;29;20035;-75
2022/04/06 11:03:19;;;;;;;0.73;0.73;;;14.20;99.90;;;;;;4953564;29;20031;-75
2022/04/06 11:05:52;;;;;;;0.40;0.40;;;14.30;99.90;;;;;;4953233;29;20029;-77
2022/04/06 11:11:45;;;;;;;0.20;0.20;;;15.00;99.90;;;;;;4953014;29;20054;-75
2022/04/06 11:14:33;;;;;;;0.25;0.25;;;15.90;99.90;;;;;;4952777;29;20031;-75
2022/04/06 11:16:59;;;;;;;1.35;0.20;;;15.40;99.90;;;;;;4935475;29;20407;-75
2022/04/06 11:19:26;;;;;;;0.25;0.25;;;15.30;99.90;;;;;;4953256;29;20030;-75
2022/04/06 11:21:57;;;;;;;0.88;0.43;;;15.00;99.90;;;;;;4953287;29;20031;-75
2022/04/06 11:24:25;;;;;;;0.43;0.28;;;15.00;99.90;;;;;;4954230;29;20062;-75
2022/04/06 11:26:51;;;;;;;0.30;0.30;;;15.10;99.90;;;;;;4936017;29;20247;-75
2022/04/06 11:29:18;;;;;;;0.38;0.35;;;15.60;99.90;;;;;;4955035;29;20085;-75
2022/04/06 11:32:00;;;;;;;0.40;0.28;;;16.00;99.90;;;;;;4953769;29;20151;-74
2022/04/06 11:34:30;;;;;;;1.35;0.30;;;15.70;99.90;;;;;;4952596;28;20042;-75
2022/04/06 11:36:59;;;;;;;0.30;0.30;;;15.60;99.90;;;;;;4952635;29;20046;-75
2022/04/06 11:39:25;;;;;;;0.30;0.28;;;15.70;99.90;;;;;;4953204;29;20062;-80
2022/04/06 11:41:51;;;;;;;0.20;0.20;;;15.50;99.20;;;;;;4953318;29;20114;-76
2022/04/06 11:44:21;;;;;;;0.28;0.28;;;15.40;99.90;;;;;;4954036;29;20049;-75
2022/04/06 11:46:47;;;;;;;0.20;0.20;;;15.30;99.10;;;;;;4954852;29;20133;-75
2022/04/06 11:49:19;;;;;;;0.35;0.32;;;15.60;98.10;;;;;;4954458;29;20095;-75
2022/04/06 11:51:45;;;;;;;0.45;0.45;;;15.60;99.90;;;;;;4954545;29;20031;-75
2022/04/06 11:54:13;;;;;;;0.43;0.43;;;15.20;99.90;;;;;;4954111;29;20043;-75
2022/04/06 11:56:40;;;;;;;0.67;0.50;;;14.90;99.90;;;;;;4954288;29;20031;-75
2022/04/06 11:59:10;;;;;;;0.35;0.35;;;14.40;99.90;;;;;;4954030;29;20314;-75
2022/04/06 12:01:42;;;;;;;;;;;14.40;99.90;;;;;;4953864;29;20073;-75
2022/04/06 12:04:16;;;;;;;2.25;0.30;;;14.50;99.90;;;;;;4953747;29;19914;-75
2022/04/06 12:06:43;;;;;;;0.25;0.25;;;14.60;99.90;;;;;;4954343;29;20050;-75
2022/04/06 12:09:09;;;;;;;0.85;0.45;;;15.10;99.90;;;;;;4954659;29;20042;-75
2022/04/06 12:11:36;;;;;;;0.95;0.40;;;15.10;99.90;;;;;;4937995;29;20395;-80
2022/04/06 12:14:03;;;;;;;0.20;0.20;;;15.60;99.90;;;;;;4953677;29;20031;-81
2022/04/06 12:16:29;;;;;;;0.28;0.28;;;15.40;99.90;;;;;;4953527;29;20032;-75
2022/04/06 12:18:55;;;;;;;0.38;0.38;;;15.50;99.90;;;;;;4954400;29;20027;-75
2022/04/06 12:21:23;;;;;;;0.20;0.20;;;15.60;99.90;;;;;;4954927;29;20033;-75
2022/04/06 12:23:50;;;;;;;0.13;0.13;;;15.50;99.90;;;;;;4954470;29;20085;-76
2022/04/06 12:26:16;;;;;;;0.10;0.10;;;15.60;99.90;;;;;;4953642;29;20416;-75
2022/04/06 12:28:44;;;;;;;0.30;0.20;;;15.60;97.00;;;;;;4953680;28;20500;-75
2022/04/06 12:31:13;;;;;;;0.20;0.20;;;15.80;99.90;;;;;;4953941;29;20058;-75
2022/04/06 12:33:45;;;;;;;0.32;0.32;;;16.10;94.30;;;;;;4954149;29;20278;-75
2022/04/06 12:36:14;;;;;;;0.30;0.30;;;15.90;94.10;;;;;;4954435;29;20019;-75
2022/04/06 12:38:42;;;;;;;0.30;0.30;;;15.80;93.60;;;;;;4953446;29;20047;-75
2022/04/06 12:41:11;;;;;;;0.30;0.20;;;15.80;98.80;;;;;;4954417;29;20027;-76
2022/04/06 12:43:38;;;;;;;0.10;0.10;;;15.40;98.10;;;;;;4953815;29;20172;-82
2022/04/06 12:46:04;;;;;;;0.52;0.20;;;15.40;99.30;;;;;;4952925;29;20050;-75
2022/04/06 12:48:30;;;;;;;0.20;0.20;;;14.90;97.60;;;;;;4953257;29;20019;-76
2022/04/06 12:50:56;;;;;;;1.08;0.30;;;15.30;99.90;;;;;;4953236;29;20050;-75
2022/04/06 12:53:22;;;;;;;0.88;0.85;;;15.50;99.10;;;;;;4953417;29;20038;-77
2022/04/06 12:56:11;;;;;;;0.82;0.52;;;15.20;99.90;;;;;;4953308;29;20049;-77
2022/04/06 12:58:37;;;;;;;0.45;0.43;;;15.30;99.90;;;;;;4953544;29;20059;-75
2022/04/06 13:01:09;;;;;;;1.23;0.30;;;15.30;99.90;;;;;;4954275;29;20436;-80
2022/04/06 13:03:36;;;;;;;0.50;0.30;;;15.10;99.90;;;;;;4953374;29;20031;-75
2022/04/06 13:06:02;;;;;;;0.35;0.35;;;15.00;99.90;;;;;;4952682;29;20026;-76
2022/04/06 13:08:27;;;;;;;0.40;0.40;;;15.10;99.90;;;;;;4952696;29;20024;-75